Time;durP1;ratioP1;P1;durP2;ratioP2;P2;SDS_P1;SDS_P2;PMS_P1;PMS_P2;Temp;Humidity;BMP_temperature;BMP_pressure;BME280_temperature;BME280_humidity;BME280_pressure;Samples;Min_cycle;Max_cycle;Signal;HPM_P1;HPM_P2
2022/09/06 12:03:51;;;;;;;;;;;44.80;17.90;;;;;;6197452;22;20363;-82
2022/09/06 12:06:24;;;;;;;;;;;44.60;17.80;;;;;;6252191;22;19911;-80
2022/09/06 12:08:54;;;;;;;;;;;44.20;17.90;;;;;;6243779;22;19955;-81
2022/09/06 12:14:48;;;;;;;;;;;44.20;18.40;;;;;;6160841;23;20689;-92
2022/09/06 12:17:17;;;;;;;;;;;44.60;18.40;;;;;;6132496;23;20245;-89
2022/09/06 12:30:08;;;;;;;;;;;44.90;17.80;;;;;;6246808;22;20349;-90
2022/09/06 12:32:35;;;;;;;;;;;45.00;17.90;;;;;;6246982;22;20000;-88
2022/09/06 12:35:11;;;;;;;;;;;45.00;17.80;;;;;;6220277;23;19907;-88
2022/09/06 12:37:50;;;;;;;;;;;45.00;17.90;;;;;;6199723;22;19923;-86
2022/09/06 12:40:18;;;;;;;;;;;44.90;17.80;;;;;;6241818;23;20353;-93
2022/09/06 12:42:45;;;;;;;;;;;44.80;17.60;;;;;;6221233;22;19922;-92
2022/09/06 12:45:26;;;;;;;;;;;44.70;17.80;;;;;;6220365;22;19892;-92
2022/09/06 12:48:05;;;;;;;;;;;44.60;17.50;;;;;;6215917;22;19922;-89
2022/09/06 12:50:31;;;;;;;;;;;44.70;17.80;;;;;;6248525;23;20315;-87
2022/09/06 12:52:58;;;;;;;;;;;44.80;17.80;;;;;;6214086;23;20225;-88
2022/09/06 12:55:34;;;;;;;;;;;44.80;17.90;;;;;;6214459;23;19908;-87
2022/09/06 12:58:02;;;;;;;;;;;44.80;17.90;;;;;;6241859;22;19916;-87
2022/09/06 13:00:32;;;;;;;;;;;44.80;17.80;;;;;;6240433;23;19921;-89
2022/09/06 13:03:13;;;;;;;;;;;44.70;17.70;;;;;;6218002;23;19994;-87
2022/09/06 13:05:40;;;;;;;;;;;44.30;17.60;;;;;;6218779;23;19907;-90
2022/09/06 13:08:07;;;;;;;;;;;44.00;18.00;;;;;;6214963;23;19939;-88
2022/09/06 13:10:33;;;;;;;;;;;44.10;18.00;;;;;;6220759;23;19907;-93
2022/09/06 13:12:58;;;;;;;;;;;44.10;18.10;;;;;;6214755;23;19995;-88
2022/09/06 13:15:26;;;;;;;;;;;43.80;18.00;;;;;;6219629;22;19907;-92
2022/09/06 13:17:52;;;;;;;;;;;43.70;18.20;;;;;;6247463;22;19916;-87
2022/09/06 13:20:27;;;;;;;;;;;43.70;18.50;;;;;;6251486;22;19930;-94
2022/09/06 13:23:04;;;;;;;;;;;43.70;18.30;;;;;;6227701;22;20229;-86
2022/09/06 13:25:29;;;;;;;;;;;43.50;18.40;;;;;;6215215;23;19916;-88
2022/09/06 13:27:56;;;;;;;;;;;42.80;18.70;;;;;;6218063;23;20433;-92
2022/09/06 13:30:51;;;;;;;;;;;42.10;19.10;;;;;;6208618;23;19911;-90
2022/09/06 13:33:23;;;;;;;;;;;41.70;19.60;;;;;;6179071;23;19904;-86
2022/09/06 13:35:49;;;;;;;;;;;41.20;20.10;;;;;;6215249;23;19915;-87
2022/09/06 13:38:37;;;;;;;;;;;40.90;20.40;;;;;;6210543;23;19908;-86
2022/09/06 13:41:04;;;;;;;;;;;40.70;20.80;;;;;;6209882;23;19931;-86
2022/09/06 13:43:33;;;;;;;;;;;40.40;21.10;;;;;;6213026;23;20213;-86
2022/09/06 13:46:06;;;;;;;;;;;40.20;21.40;;;;;;6213508;23;19951;-87
2022/09/06 13:48:32;;;;;;;;;;;39.90;21.40;;;;;;6208762;23;20279;-87
2022/09/06 13:50:58;;;;;;;;;;;39.50;21.70;;;;;;6214328;23;19967;-87
2022/09/06 13:53:23;;;;;;;;;;;39.20;22.10;;;;;;6214463;23;19912;-91
2022/09/06 13:55:49;;;;;;;;;;;38.80;22.40;;;;;;6215068;23;20007;-90
2022/09/06 13:58:15;;;;;;;;;;;38.60;22.70;;;;;;6215720;23;19972;-88
2022/09/06 14:00:41;;;;;;;;;;;38.30;22.80;;;;;;6215791;23;19912;-87
2022/09/06 14:03:07;;;;;;;;;;;38.10;23.10;;;;;;6216738;23;19960;-86
2022/09/06 14:05:37;;;;;;;;;;;37.80;23.40;;;;;;6215904;23;20397;-91
2022/09/06 14:08:03;;;;;;;;;;;37.70;23.70;;;;;;6213772;23;20385;-91
2022/09/06 14:10:29;;;;;;;;;;;37.50;23.80;;;;;;6212518;23;19986;-85
2022/09/06 14:12:57;;;;;;;;;;;37.40;24.10;;;;;;6212100;23;19938;-90
2022/09/06 14:15:22;;;;;;;;;;;37.20;24.50;;;;;;6219904;23;19904;-86
2022/09/06 14:17:48;;;;;;;;;;;37.00;24.90;;;;;;6217866;23;19908;-91
2022/09/06 14:20:13;;;;;;;;;;;36.90;25.20;;;;;;6216804;23;20259;-86
2022/09/06 14:22:39;;;;;;;;;;;36.70;25.10;;;;;;6216971;23;19979;-86
2022/09/06 14:25:05;;;;;;;;;;;36.50;25.10;;;;;;6189522;23;19912;-86
2022/09/06 14:27:31;;;;;;;;;;;36.30;25.20;;;;;;6187706;23;20331;-85
2022/09/06 14:29:57;;;;;;;;;;;36.20;25.40;;;;;;6220268;23;19926;-91
2022/09/06 14:32:24;;;;;;;;;;;36.10;25.70;;;;;;6224898;23;20395;-91
2022/09/06 14:34:50;;;;;;;;;;;36.00;25.90;;;;;;6214863;23;19935;-88
2022/09/06 14:37:15;;;;;;;;;;;35.90;26.20;;;;;;6218805;23;19916;-92
2022/09/06 14:39:41;;;;;;;;;;;35.80;26.40;;;;;;6218945;23;19966;-86
2022/09/06 14:42:07;;;;;;;;;;;35.60;26.60;;;;;;6215458;23;19916;-91
2022/09/06 14:44:33;;;;;;;;;;;35.50;26.70;;;;;;6196286;23;19908;-87
2022/09/06 14:46:59;;;;;;;;;;;35.40;26.90;;;;;;6212651;23;19944;-89
2022/09/06 14:49:24;;;;;;;;;;;35.30;26.80;;;;;;6211664;23;20290;-85
2022/09/06 14:51:50;;;;;;;;;;;35.30;26.80;;;;;;6189818;23;20258;-89
2022/09/06 14:54:16;;;;;;;;;;;35.20;26.90;;;;;;6191451;23;19910;-86
2022/09/06 14:56:42;;;;;;;;;;;35.20;27.10;;;;;;6218047;23;19986;-87
2022/09/06 14:59:08;;;;;;;;;;;35.20;26.80;;;;;;6213458;23;19918;-90
2022/09/06 15:01:34;;;;;;;;;;;35.20;26.70;;;;;;6186452;23;20343;-92
2022/09/06 15:04:01;;;;;;;;;;;35.10;26.70;;;;;;6186944;23;19908;-91
2022/09/06 15:06:27;;;;;;;;;;;35.10;26.80;;;;;;6215893;23;19916;-86
2022/09/06 15:08:53;;;;;;;;;;;35.10;26.80;;;;;;6214587;23;19911;-93
2022/09/06 15:11:46;;;;;;;;;;;35.10;26.80;;;;;;6187291;23;19916;-90
2022/09/06 15:14:15;;;;;;;;;;;35.10;26.80;;;;;;6182493;23;20258;-85
2022/09/06 15:16:41;;;;;;;;;;;35.10;26.70;;;;;;6187011;23;20280;-87
2022/09/06 15:19:07;;;;;;;;;;;35.00;27.10;;;;;;6220043;23;19908;-90
2022/09/06 15:21:33;;;;;;;;;;;35.00;27.50;;;;;;6187487;23;20007;-89
2022/09/06 15:24:00;;;;;;;;;;;34.90;28.00;;;;;;6211585;23;19907;-87
2022/09/06 15:26:26;;;;;;;;;;;34.80;28.30;;;;;;6215528;23;19912;-92
2022/09/06 15:28:51;;;;;;;;;;;34.70;28.60;;;;;;6209921;23;19954;-87
2022/09/06 15:31:18;;;;;;;;;;;34.70;28.80;;;;;;6214170;23;19987;-91
2022/09/06 15:33:44;;;;;;;;;;;34.60;28.80;;;;;;6211516;23;20229;-89
2022/09/06 15:36:10;;;;;;;;;;;34.50;29.00;;;;;;6212698;23;19931;-91
2022/09/06 15:38:40;;;;;;;;;;;34.50;29.10;;;;;;6212701;23;20057;-86
2022/09/06 15:41:09;;;;;;;;;;;34.40;29.00;;;;;;6209060;23;19911;-88
2022/09/06 15:43:37;;;;;;;;;;;34.40;29.10;;;;;;6220047;23;20344;-90
2022/09/06 15:46:05;;;;;;;;;;;34.30;29.30;;;;;;6210577;23;19991;-86
2022/09/06 15:48:38;;;;;;;;;;;34.30;29.20;;;;;;6214779;23;19916;-88
2022/09/06 15:51:04;;;;;;;;;;;34.30;29.10;;;;;;6209301;23;19912;-85
2022/09/06 15:53:29;;;;;;;;;;;34.30;28.90;;;;;;6215827;23;20300;-87
2022/09/06 15:55:57;;;;;;;;;;;34.20;29.10;;;;;;6214411;23;20391;-92
2022/09/06 15:58:26;;;;;;;;;;;34.20;29.20;;;;;;6217285;23;20038;-89
2022/09/06 16:01:00;;;;;;;;;;;34.20;29.30;;;;;;6208497;23;19916;-86
2022/09/06 16:03:26;;;;;;;;;;;34.00;29.30;;;;;;6211894;23;19995;-87
2022/09/06 16:05:52;;;;;;;;;;;34.00;29.40;;;;;;6208308;23;19950;-90
2022/09/06 16:08:18;;;;;;;;;;;34.00;29.50;;;;;;6209358;23;19970;-87
2022/09/06 16:10:44;;;;;;;;;;;33.90;29.50;;;;;;6210427;23;20320;-91
2022/09/06 16:13:09;;;;;;;;;;;33.80;29.60;;;;;;6214785;22;19918;-88
2022/09/06 16:15:34;;;;;;;;;;;33.80;29.70;;;;;;6211293;23;20429;-90
2022/09/06 16:18:03;;;;;;;;;;;33.80;29.70;;;;;;6213872;23;19908;-91
2022/09/06 16:20:35;;;;;;;;;;;33.70;29.80;;;;;;6211026;23;19912;-91
2022/09/06 16:23:01;;;;;;;;;;;33.60;29.90;;;;;;6208314;23;19952;-90
2022/09/06 16:25:27;;;;;;;;;;;33.60;29.90;;;;;;6183891;23;20520;-90
2022/09/06 16:27:52;;;;;;;;;;;33.50;30.00;;;;;;6212898;23;20576;-91
2022/09/06 16:30:18;;;;;;;;;;;33.50;30.10;;;;;;6190469;23;19915;-91
2022/09/06 16:32:43;;;;;;;;;;;33.40;30.20;;;;;;6192401;23;20196;-86
2022/09/06 16:35:09;;;;;;;;;;;33.30;30.30;;;;;;6194873;23;19946;-89
2022/09/06 16:37:34;;;;;;;;;;;33.30;30.50;;;;;;6187287;23;19915;-92
2022/09/06 16:40:00;;;;;;;;;;;33.30;30.60;;;;;;6194441;23;19916;-92
2022/09/06 16:42:26;;;;;;;;;;;33.30;30.70;;;;;;6189728;23;19904;-89
2022/09/06 16:44:52;;;;;;;;;;;33.20;30.80;;;;;;6218270;23;19908;-87
2022/09/06 16:47:17;;;;;;;;;;;33.10;30.90;;;;;;6213419;23;19908;-90
2022/09/06 16:49:43;;;;;;;;;;;33.10;30.90;;;;;;6181192;23;19907;-86
2022/09/06 16:52:08;;;;;;;;;;;33.00;31.00;;;;;;6211051;23;19908;-89
2022/09/06 16:54:34;;;;;;;;;;;33.00;31.10;;;;;;6208061;23;20365;-88
2022/09/06 16:57:00;;;;;;;;;;;33.00;31.20;;;;;;6210170;23;20239;-85
2022/09/06 16:59:25;;;;;;;;;;;32.90;31.30;;;;;;6208434;23;19931;-88
2022/09/06 17:01:53;;;;;;;;;;;32.90;31.40;;;;;;6208476;23;19907;-88
2022/09/06 17:04:18;;;;;;;;;;;32.80;31.50;;;;;;6212543;23;19919;-86
2022/09/06 17:06:44;;;;;;;;;;;32.80;31.50;;;;;;6210832;23;19912;-90
2022/09/06 17:09:11;;;;;;;;;;;32.80;31.70;;;;;;6228758;23;19915;-87
2022/09/06 17:11:37;;;;;;;;;;;32.70;31.70;;;;;;6217359;23;19911;-88
2022/09/06 17:14:03;;;;;;;;;;;32.70;31.70;;;;;;6214984;23;19971;-91
2022/09/06 17:19:12;;;;;;;;;;;32.60;31.90;;;;;;6221009;23;20042;-91
2022/09/06 17:21:38;;;;;;;;;;;32.50;32.00;;;;;;6188198;23;19920;-87
2022/09/06 17:24:04;;;;;;;;;;;32.50;32.10;;;;;;6209307;23;19927;-92
2022/09/06 17:26:31;;;;;;;;;;;32.50;32.10;;;;;;6210889;23;19908;-87
2022/09/06 17:28:56;;;;;;;;;;;32.40;32.10;;;;;;6209084;23;20240;-88
2022/09/06 17:31:22;;;;;;;;;;;32.40;32.20;;;;;;6207748;23;19908;-88
2022/09/06 17:33:48;;;;;;;;;;;32.30;32.20;;;;;;6209459;23;20304;-88
2022/09/06 17:36:16;;;;;;;;;;;32.30;32.30;;;;;;6211594;23;19912;-87
2022/09/06 17:38:42;;;;;;;;;;;32.20;32.30;;;;;;6220870;23;19934;-91
2022/09/06 17:41:13;;;;;;;;;;;32.20;32.50;;;;;;6213219;23;19986;-91
2022/09/06 17:43:39;;;;;;;;;;;32.10;32.60;;;;;;6218727;23;19942;-91
2022/09/06 17:46:10;;;;;;;;;;;32.00;32.80;;;;;;6213819;23;19912;-90
2022/09/06 17:48:35;;;;;;;;;;;31.90;32.90;;;;;;6210224;23;19947;-87
2022/09/06 17:51:11;;;;;;;;;;;31.80;33.00;;;;;;6211644;23;19912;-89
2022/09/06 17:53:42;;;;;;;;;;;31.70;33.20;;;;;;6210069;23;20330;-86
2022/09/06 17:56:12;;;;;;;;;;;31.60;33.30;;;;;;6203363;23;19911;-86
2022/09/06 17:58:39;;;;;;;;;;;31.50;33.40;;;;;;6210128;23;19927;-90
2022/09/06 18:01:05;;;;;;;;;;;31.50;33.40;;;;;;6212108;23;19928;-89
2022/09/06 18:03:31;;;;;;;;;;;31.30;33.50;;;;;;6214506;23;19918;-89
2022/09/06 18:06:01;;;;;;;;;;;31.20;33.60;;;;;;6182062;23;19951;-88
2022/09/06 18:08:26;;;;;;;;;;;31.20;33.60;;;;;;6207918;23;20328;-91
2022/09/06 18:10:52;;;;;;;;;;;31.00;33.80;;;;;;6211964;23;19911;-86
2022/09/06 18:13:17;;;;;;;;;;;31.00;34.10;;;;;;6214796;23;19912;-88
2022/09/06 18:15:44;;;;;;;;;;;30.80;34.20;;;;;;6208202;23;19956;-89
2022/09/06 18:18:10;;;;;;;;;;;30.80;34.30;;;;;;6210743;23;19907;-88
2022/09/06 18:20:36;;;;;;;;;;;30.70;34.50;;;;;;6210615;23;19959;-85
2022/09/06 18:23:02;;;;;;;;;;;30.50;34.50;;;;;;6215334;23;19922;-87
2022/09/06 18:25:30;;;;;;;;;;;30.50;34.60;;;;;;6183559;23;19916;-90
2022/09/06 18:27:56;;;;;;;;;;;30.40;34.70;;;;;;6189638;23;19950;-89
2022/09/06 18:30:21;;;;;;;;;;;30.30;34.80;;;;;;6182133;23;19924;-87
2022/09/06 18:32:47;;;;;;;;;;;30.20;34.90;;;;;;6211359;23;19910;-90
2022/09/06 18:35:12;;;;;;;;;;;30.10;35.10;;;;;;6188327;23;19916;-86
2022/09/06 18:37:38;;;;;;;;;;;30.00;35.10;;;;;;6184969;23;19908;-87
2022/09/06 18:40:04;;;;;;;;;;;29.90;35.10;;;;;;6216165;23;19935;-88
2022/09/06 18:42:30;;;;;;;;;;;29.80;35.30;;;;;;6215504;23;20354;-90
2022/09/06 18:44:56;;;;;;;;;;;29.70;35.40;;;;;;6211315;23;20304;-87
2022/09/06 18:47:21;;;;;;;;;;;29.60;35.50;;;;;;6210443;23;19908;-94
2022/09/06 18:49:47;;;;;;;;;;;29.50;35.70;;;;;;6215207;23;20725;-92
2022/09/06 18:52:13;;;;;;;;;;;29.40;35.80;;;;;;6212426;23;20259;-89
2022/09/06 18:54:39;;;;;;;;;;;29.30;36.10;;;;;;6213107;23;19915;-91
2022/09/06 18:57:04;;;;;;;;;;;29.20;36.20;;;;;;6185458;23;19912;-90
2022/09/06 18:59:30;;;;;;;;;;;29.20;36.40;;;;;;6212334;23;20531;-90
2022/09/06 19:01:55;;;;;;;;;;;29.10;36.50;;;;;;6215254;23;20358;-90
2022/09/06 19:04:21;;;;;;;;;;;29.00;36.60;;;;;;6211569;23;20711;-90
2022/09/06 19:06:47;;;;;;;;;;;28.90;36.80;;;;;;6184446;23;19908;-86
2022/09/06 19:09:14;;;;;;;;;;;28.80;36.80;;;;;;6182534;23;19907;-88
2022/09/06 19:11:44;;;;;;;;;;;28.80;37.00;;;;;;6183758;23;20006;-91
2022/09/06 19:14:10;;;;;;;;;;;28.70;36.90;;;;;;6184424;23;20283;-86
2022/09/06 19:16:36;;;;;;;;;;;28.60;37.00;;;;;;6207680;23;19936;-86
2022/09/06 19:19:03;;;;;;;;;;;28.60;37.20;;;;;;6214770;23;19955;-87
2022/09/06 19:21:29;;;;;;;;;;;28.50;37.40;;;;;;6183428;23;19927;-87
2022/09/06 19:23:59;;;;;;;;;;;28.40;37.50;;;;;;6210025;23;19919;-86
2022/09/06 19:26:25;;;;;;;;;;;28.40;37.50;;;;;;6217333;23;19919;-87
2022/09/06 19:28:51;;;;;;;;;;;28.30;37.50;;;;;;6209912;23;19992;-93
2022/09/06 19:31:17;;;;;;;;;;;28.30;37.60;;;;;;6218592;23;19966;-93
2022/09/06 19:33:43;;;;;;;;;;;28.20;37.50;;;;;;6187218;23;19983;-90
2022/09/06 19:36:09;;;;;;;;;;;28.10;37.50;;;;;;6182570;23;19916;-93
2022/09/06 19:38:35;;;;;;;;;;;28.10;37.50;;;;;;6215387;23;19939;-93
2022/09/06 19:41:05;;;;;;;;;;;28.00;37.50;;;;;;6215695;23;19920;-92
2022/09/06 19:43:31;;;;;;;;;;;27.90;37.70;;;;;;6216220;23;19939;-90
2022/09/06 19:46:00;;;;;;;;;;;27.80;38.10;;;;;;6189007;23;19916;-86
2022/09/06 19:48:28;;;;;;;;;;;27.80;38.30;;;;;;6182806;23;23318;-86
2022/09/06 19:50:58;;;;;;;;;;;27.80;38.60;;;;;;6185809;23;19996;-87
2022/09/06 19:53:24;;;;;;;;;;;27.70;39.10;;;;;;6216894;23;19904;-86
2022/09/06 19:55:49;;;;;;;;;;;27.70;39.30;;;;;;6184862;23;19961;-85
2022/09/06 19:58:15;;;;;;;;;;;27.60;39.40;;;;;;6215459;23;19904;-92
2022/09/06 20:00:41;;;;;;;;;;;27.60;39.70;;;;;;6184479;23;20320;-92
2022/09/06 20:03:07;;;;;;;;;;;27.50;39.70;;;;;;6212774;23;19908;-90
2022/09/06 20:05:33;;;;;;;;;;;27.50;39.70;;;;;;6183646;23;19923;-87
2022/09/06 20:07:59;;;;;;;;;;;27.50;39.80;;;;;;6185894;23;20267;-93
2022/09/06 20:10:25;;;;;;;;;;;27.40;39.70;;;;;;6210090;23;19923;-89
2022/09/06 20:12:53;;;;;;;;;;;27.40;39.80;;;;;;6210655;23;20331;-91
2022/09/06 20:15:19;;;;;;;;;;;27.40;40.20;;;;;;6214302;23;19997;-90
2022/09/06 20:17:45;;;;;;;;;;;27.30;40.10;;;;;;6212525;23;19904;-86
2022/09/06 20:20:11;;;;;;;;;;;27.30;40.10;;;;;;6182919;23;20006;-91
2022/09/06 20:22:36;;;;;;;;;;;27.30;40.20;;;;;;6213440;23;19916;-85
2022/09/06 20:25:02;;;;;;;;;;;27.20;40.20;;;;;;6217705;23;19912;-91
2022/09/06 20:27:29;;;;;;;;;;;27.20;40.20;;;;;;6212284;23;19912;-91
2022/09/06 20:29:54;;;;;;;;;;;27.20;40.20;;;;;;6188492;23;19976;-93
2022/09/06 20:32:20;;;;;;;;;;;27.20;40.10;;;;;;6187535;23;19940;-92
2022/09/06 20:34:46;;;;;;;;;;;27.00;39.90;;;;;;6188676;23;20336;-92
2022/09/06 20:37:11;;;;;;;;;;;27.00;39.80;;;;;;6221698;22;19896;-93
2022/09/06 20:39:37;;;;;;;;;;;26.90;39.90;;;;;;6213995;23;19932;-90
2022/09/06 20:42:03;;;;;;;;;;;26.80;40.00;;;;;;6180803;23;19912;-88
2022/09/06 20:44:29;;;;;;;;;;;26.70;40.10;;;;;;6185408;23;19931;-93
2022/09/06 20:46:54;;;;;;;;;;;26.70;40.20;;;;;;6187802;23;20415;-93
2022/09/06 20:49:21;;;;;;;;;;;26.60;40.30;;;;;;6213982;23;19915;-93
2022/09/06 20:51:47;;;;;;;;;;;26.50;40.40;;;;;;6215466;23;19919;-92
2022/09/06 20:54:13;;;;;;;;;;;26.50;40.70;;;;;;6187730;23;19927;-92
2022/09/06 20:56:40;;;;;;;;;;;26.30;41.10;;;;;;6189595;23;19927;-85
2022/09/06 20:59:07;;;;;;;;;;;26.30;41.40;;;;;;6219012;23;19908;-93
2022/09/06 21:01:34;;;;;;;;;;;26.30;41.20;;;;;;6212464;23;19977;-86
2022/09/06 21:04:00;;;;;;;;;;;26.20;41.10;;;;;;6211907;23;19904;-93
2022/09/06 21:06:27;;;;;;;;;;;26.20;41.20;;;;;;6184250;23;20005;-94
2022/09/06 21:08:56;;;;;;;;;;;26.10;41.30;;;;;;6185013;23;19908;-92
2022/09/06 21:11:22;;;;;;;;;;;26.10;41.40;;;;;;6188469;23;19918;-93
2022/09/06 21:13:49;;;;;;;;;;;26.10;41.80;;;;;;6186392;23;20271;-92
2022/09/06 21:16:15;;;;;;;;;;;26.10;41.90;;;;;;6206953;23;19911;-89
2022/09/06 21:18:44;;;;;;;;;;;26.10;42.50;;;;;;6190600;23;20192;-87
2022/09/06 21:21:11;;;;;;;;;;;26.10;42.20;;;;;;6212398;23;19923;-87
2022/09/06 21:23:37;;;;;;;;;;;26.10;42.30;;;;;;6187149;23;19962;-92
2022/09/06 21:26:09;;;;;;;;;;;26.10;42.30;;;;;;6208916;23;19935;-92
2022/09/06 21:28:35;;;;;;;;;;;26.10;42.50;;;;;;6210039;23;19955;-87
2022/09/06 21:31:03;;;;;;;;;;;26.10;42.70;;;;;;6206983;23;19911;-87
2022/09/06 21:33:29;;;;;;;;;;;26.10;42.70;;;;;;6207839;23;20400;-87
2022/09/06 21:36:14;;;;;;;;;;;26.20;42.70;;;;;;6176815;23;19912;-86
2022/09/06 21:38:41;;;;;;;;;;;26.10;42.70;;;;;;6181171;23;20330;-86
2022/09/06 21:41:08;;;;;;;;;;;26.10;42.60;;;;;;6207740;23;19926;-87
2022/09/06 21:43:34;;;;;;;;;;;26.10;42.60;;;;;;6209794;23;19912;-86
2022/09/06 21:46:00;;;;;;;;;;;26.20;42.60;;;;;;6181714;23;19919;-87
2022/09/06 21:48:26;;;;;;;;;;;26.10;42.50;;;;;;6189091;23;19919;-90
2022/09/06 21:50:51;;;;;;;;;;;26.10;42.40;;;;;;6209279;23;19911;-87
2022/09/06 21:53:17;;;;;;;;;;;26.10;42.60;;;;;;6186495;23;19963;-92
2022/09/06 21:55:43;;;;;;;;;;;26.10;42.60;;;;;;6195273;23;19908;-89
2022/09/06 21:58:09;;;;;;;;;;;26.10;42.60;;;;;;6217493;23;19911;-86
2022/09/06 22:00:35;;;;;;;;;;;26.10;42.40;;;;;;6212666;23;20002;-85
2022/09/06 22:03:00;;;;;;;;;;;26.00;42.40;;;;;;6192118;23;19934;-90
2022/09/06 22:05:26;;;;;;;;;;;26.00;42.50;;;;;;6213178;23;19916;-85
2022/09/06 22:07:51;;;;;;;;;;;25.90;42.70;;;;;;6214779;23;19936;-92
2022/09/06 22:10:17;;;;;;;;;;;25.90;42.60;;;;;;6191854;23;19915;-93
2022/09/06 22:12:42;;;;;;;;;;;25.80;42.50;;;;;;6189807;23;20492;-87
2022/09/06 22:15:08;;;;;;;;;;;25.80;42.60;;;;;;6212758;23;19908;-90
2022/09/06 22:17:34;;;;;;;;;;;25.80;42.60;;;;;;6222476;23;20302;-93
2022/09/06 22:19:59;;;;;;;;;;;25.80;42.60;;;;;;6214478;23;20198;-90
2022/09/06 22:22:26;;;;;;;;;;;25.70;42.50;;;;;;6213166;23;20382;-88
2022/09/06 22:24:51;;;;;;;;;;;25.70;42.60;;;;;;6213365;23;19912;-92
2022/09/06 22:27:16;;;;;;;;;;;25.60;42.60;;;;;;6218047;23;19911;-91
2022/09/06 22:29:42;;;;;;;;;;;25.70;42.70;;;;;;6218704;23;19993;-86
2022/09/06 22:32:09;;;;;;;;;;;25.70;42.70;;;;;;6189075;23;19912;-86
2022/09/06 22:34:35;;;;;;;;;;;25.60;42.70;;;;;;6187012;23;20357;-90
2022/09/06 22:37:00;;;;;;;;;;;25.60;42.70;;;;;;6217556;23;19908;-92
2022/09/06 22:39:26;;;;;;;;;;;25.60;42.70;;;;;;6191427;23;19950;-86
2022/09/06 22:41:52;;;;;;;;;;;25.50;42.90;;;;;;6215406;23;19904;-86
2022/09/06 22:44:20;;;;;;;;;;;25.50;43.00;;;;;;6186389;23;19904;-85
2022/09/06 22:46:46;;;;;;;;;;;25.50;43.00;;;;;;6214055;23;19908;-89
2022/09/06 22:49:11;;;;;;;;;;;25.50;43.10;;;;;;6187565;23;20321;-90
2022/09/06 22:51:38;;;;;;;;;;;25.50;43.00;;;;;;6219161;23;19903;-91
2022/09/06 22:54:03;;;;;;;;;;;25.40;43.00;;;;;;6192209;23;19908;-92
2022/09/06 22:56:30;;;;;;;;;;;25.40;43.00;;;;;;6189186;23;19912;-92
2022/09/06 22:58:55;;;;;;;;;;;25.40;43.00;;;;;;6197011;23;19904;-92
2022/09/06 23:01:21;;;;;;;;;;;25.30;43.10;;;;;;6227668;23;19994;-86
2022/09/06 23:03:48;;;;;;;;;;;25.30;43.10;;;;;;6189932;23;20284;-87
2022/09/06 23:06:13;;;;;;;;;;;25.30;43.10;;;;;;6213767;23;19958;-87
2022/09/06 23:08:39;;;;;;;;;;;25.30;43.30;;;;;;6191745;23;19908;-86
2022/09/06 23:11:06;;;;;;;;;;;25.20;43.20;;;;;;6219435;23;19915;-92
2022/09/06 23:13:31;;;;;;;;;;;25.20;43.20;;;;;;6188656;23;19904;-86
2022/09/06 23:16:04;;;;;;;;;;;25.20;43.30;;;;;;6218546;23;19958;-87
2022/09/06 23:18:30;;;;;;;;;;;25.10;43.30;;;;;;6193738;23;19970;-93
2022/09/06 23:20:56;;;;;;;;;;;25.10;43.40;;;;;;6189251;23;19924;-87
2022/09/06 23:23:21;;;;;;;;;;;25.00;43.40;;;;;;6216550;22;19919;-87
2022/09/06 23:25:47;;;;;;;;;;;25.00;43.50;;;;;;6220226;23;19912;-86
2022/09/06 23:28:12;;;;;;;;;;;25.00;43.60;;;;;;6217768;23;19950;-87
2022/09/06 23:30:38;;;;;;;;;;;25.00;43.70;;;;;;6215340;23;19938;-88
2022/09/06 23:33:03;;;;;;;;;;;24.90;44.00;;;;;;6217487;23;19930;-92
2022/09/06 23:35:29;;;;;;;;;;;24.90;44.30;;;;;;6214037;23;20209;-91
2022/09/06 23:37:55;;;;;;;;;;;24.80;44.50;;;;;;6220185;23;19910;-90
2022/09/06 23:40:20;;;;;;;;;;;24.80;45.10;;;;;;6214521;23;19924;-90
2022/09/06 23:42:46;;;;;;;;;;;24.80;45.40;;;;;;6213765;23;19908;-88
2022/09/06 23:45:11;;;;;;;;;;;24.80;45.40;;;;;;6217167;23;19908;-85
2022/09/06 23:47:37;;;;;;;;;;;24.80;45.40;;;;;;6213311;23;19979;-90
2022/09/06 23:50:03;;;;;;;;;;;24.80;45.40;;;;;;6219219;23;19908;-92
2022/09/06 23:52:29;;;;;;;;;;;24.80;45.60;;;;;;6218364;23;19915;-86
2022/09/06 23:54:54;;;;;;;;;;;24.70;45.90;;;;;;6220283;23;19912;-91
2022/09/06 23:57:20;;;;;;;;;;;24.70;46.10;;;;;;6217744;23;19962;-92
2022/09/06 23:59:45;;;;;;;;;;;24.70;46.60;;;;;;6219477;23;19999;-87
